sensor_id;sensor_type;location;lat;lon;timestamp;pressure;altitude;pressure_sealevel;temperature;humidity
37368;BME280;23240;43.210;27.910;2023-03-16T00:00:18;100055.13;;;9.30;100.00
37368;BME280;23240;43.210;27.910;2023-03-16T00:02:44;100059.47;;;9.31;100.00
37368;BME280;23240;43.210;27.910;2023-03-16T00:05:09;100062.84;;;9.33;100.00
37368;BME280;23240;43.210;27.910;2023-03-16T00:07:35;100063.97;;;9.30;100.00
37368;BME280;23240;43.210;27.910;2023-03-16T00:10:00;100066.84;;;9.38;100.00
37368;BME280;23240;43.210;27.910;2023-03-16T00:12:26;100066.28;;;9.44;100.00
37368;BME280;23240;43.210;27.910;2023-03-16T00:14:51;100056.63;;;9.53;100.00
37368;BME280;23240;43.210;27.910;2023-03-16T00:17:18;100056.78;;;9.61;100.00
37368;BME280;23240;43.210;27.910;2023-03-16T00:19:48;100061.41;;;9.59;100.00
37368;BME280;23240;43.210;27.910;2023-03-16T00:22:15;100060.28;;;9.62;100.00
37368;BME280;23240;43.210;27.910;2023-03-16T00:24:41;100064.53;;;9.64;100.00
37368;BME280;23240;43.210;27.910;2023-03-16T00:27:12;100063.84;;;9.62;100.00
37368;BME280;23240;43.210;27.910;2023-03-16T00:29:45;100052.69;;;9.67;100.00
37368;BME280;23240;43.210;27.910;2023-03-16T00:32:14;100059.63;;;9.69;100.00
37368;BME280;23240;43.210;27.910;2023-03-16T00:34:41;100057.09;;;9.68;100.00
37368;BME280;23240;43.210;27.910;2023-03-16T00:37:06;100056.94;;;9.69;100.00
37368;BME280;23240;43.210;27.910;2023-03-16T00:39:32;100060.47;;;9.70;100.00
37368;BME280;23240;43.210;27.910;2023-03-16T00:42:00;100062.28;;;9.69;100.00
37368;BME280;23240;43.210;27.910;2023-03-16T00:44:25;100059.34;;;9.72;100.00
37368;BME280;23240;43.210;27.910;2023-03-16T00:46:50;100056.41;;;9.75;100.00
37368;BME280;23240;43.210;27.910;2023-03-16T00:49:16;100064.16;;;9.78;100.00
37368;BME280;23240;43.210;27.910;2023-03-16T00:51:41;100064.84;;;9.81;100.00
37368;BME280;23240;43.210;27.910;2023-03-16T00:54:10;100052.31;;;9.81;100.00
37368;BME280;23240;43.210;27.910;2023-03-16T00:56:36;100062.59;;;9.86;100.00
37368;BME280;23240;43.210;27.910;2023-03-16T00:59:01;100066.28;;;9.85;100.00
37368;BME280;23240;43.210;27.910;2023-03-16T01:01:26;100054.47;;;9.87;100.00
37368;BME280;23240;43.210;27.910;2023-03-16T01:03:52;100057.44;;;9.94;100.00
37368;BME280;23240;43.210;27.910;2023-03-16T01:06:18;100053.75;;;9.95;100.00
37368;BME280;23240;43.210;27.910;2023-03-16T01:08:44;100059.00;;;9.96;100.00
37368;BME280;23240;43.210;27.910;2023-03-16T01:11:12;100061.09;;;9.93;100.00
37368;BME280;23240;43.210;27.910;2023-03-16T01:13:38;100056.16;;;9.88;100.00
37368;BME280;23240;43.210;27.910;2023-03-16T01:16:04;100066.00;;;9.88;100.00
37368;BME280;23240;43.210;27.910;2023-03-16T01:18:29;100057.00;;;9.89;100.00
37368;BME280;23240;43.210;27.910;2023-03-16T01:20:58;100056.31;;;9.87;100.00
37368;BME280;23240;43.210;27.910;2023-03-16T01:23:24;100064.31;;;9.87;100.00
37368;BME280;23240;43.210;27.910;2023-03-16T01:25:49;100058.53;;;9.82;100.00
37368;BME280;23240;43.210;27.910;2023-03-16T01:28:22;100062.56;;;9.66;100.00
37368;BME280;23240;43.210;27.910;2023-03-16T01:30:49;100065.78;;;9.60;100.00
37368;BME280;23240;43.210;27.910;2023-03-16T01:33:17;100070.09;;;9.51;100.00
37368;BME280;23240;43.210;27.910;2023-03-16T01:35:50;100079.25;;;9.49;100.00
37368;BME280;23240;43.210;27.910;2023-03-16T01:38:15;100076.41;;;9.41;100.00
37368;BME280;23240;43.210;27.910;2023-03-16T01:40:40;100087.88;;;9.32;100.00
37368;BME280;23240;43.210;27.910;2023-03-16T01:43:06;100090.25;;;9.25;100.00
37368;BME280;23240;43.210;27.910;2023-03-16T01:48:17;100092.59;;;9.18;100.00
37368;BME280;23240;43.210;27.910;2023-03-16T01:50:42;100092.34;;;9.21;100.00
37368;BME280;23240;43.210;27.910;2023-03-16T01:53:08;100096.00;;;9.20;100.00
37368;BME280;23240;43.210;27.910;2023-03-16T01:55:34;100095.75;;;9.23;100.00
37368;BME280;23240;43.210;27.910;2023-03-16T01:58:00;100093.78;;;9.25;100.00
37368;BME280;23240;43.210;27.910;2023-03-16T02:00:25;100106.44;;;9.23;100.00
37368;BME280;23240;43.210;27.910;2023-03-16T02:02:56;100104.72;;;9.22;100.00
37368;BME280;23240;43.210;27.910;2023-03-16T02:05:25;100108.13;;;9.24;100.00
37368;BME280;23240;43.210;27.910;2023-03-16T02:07:53;100101.09;;;9.23;100.00
37368;BME280;23240;43.210;27.910;2023-03-16T02:10:23;100099.81;;;9.27;100.00
37368;BME280;23240;43.210;27.910;2023-03-16T02:12:50;100106.00;;;9.28;100.00
37368;BME280;23240;43.210;27.910;2023-03-16T02:15:16;100107.31;;;9.34;100.00
37368;BME280;23240;43.210;27.910;2023-03-16T02:17:42;100103.13;;;9.41;100.00
37368;BME280;23240;43.210;27.910;2023-03-16T02:22:49;100102.88;;;9.44;100.00
37368;BME280;23240;43.210;27.910;2023-03-16T02:25:18;100103.97;;;9.41;100.00
37368;BME280;23240;43.210;27.910;2023-03-16T02:30:16;100111.00;;;9.42;100.00
37368;BME280;23240;43.210;27.910;2023-03-16T02:32:41;100119.56;;;9.36;100.00
37368;BME280;23240;43.210;27.910;2023-03-16T02:35:09;100114.03;;;9.28;100.00
37368;BME280;23240;43.210;27.910;2023-03-16T02:37:34;100109.81;;;9.25;100.00
37368;BME280;23240;43.210;27.910;2023-03-16T02:40:00;100119.38;;;9.28;100.00
37368;BME280;23240;43.210;27.910;2023-03-16T02:42:26;100116.19;;;9.34;100.00
37368;BME280;23240;43.210;27.910;2023-03-16T02:44:56;100125.75;;;9.37;100.00
37368;BME280;23240;43.210;27.910;2023-03-16T02:47:27;100124.75;;;9.38;100.00
37368;BME280;23240;43.210;27.910;2023-03-16T02:49:55;100117.38;;;9.51;100.00
37368;BME280;23240;43.210;27.910;2023-03-16T02:52:20;100119.50;;;9.57;100.00
37368;BME280;23240;43.210;27.910;2023-03-16T02:54:45;100120.38;;;9.58;100.00
37368;BME280;23240;43.210;27.910;2023-03-16T02:57:11;100116.44;;;9.62;100.00
37368;BME280;23240;43.210;27.910;2023-03-16T02:59:36;100119.88;;;9.73;100.00
37368;BME280;23240;43.210;27.910;2023-03-16T03:02:01;100122.75;;;9.82;100.00
37368;BME280;23240;43.210;27.910;2023-03-16T03:04:27;100126.66;;;9.77;100.00
37368;BME280;23240;43.210;27.910;2023-03-16T03:06:52;100123.00;;;9.78;100.00
37368;BME280;23240;43.210;27.910;2023-03-16T03:09:18;100131.72;;;9.81;100.00
37368;BME280;23240;43.210;27.910;2023-03-16T03:11:43;100126.91;;;9.74;100.00
37368;BME280;23240;43.210;27.910;2023-03-16T03:14:10;100139.03;;;9.78;100.00
37368;BME280;23240;43.210;27.910;2023-03-16T03:16:35;100144.00;;;9.83;100.00
37368;BME280;23240;43.210;27.910;2023-03-16T03:19:01;100143.00;;;9.84;100.00
37368;BME280;23240;43.210;27.910;2023-03-16T03:21:26;100142.53;;;9.69;100.00
37368;BME280;23240;43.210;27.910;2023-03-16T03:23:52;100149.31;;;9.73;100.00
37368;BME280;23240;43.210;27.910;2023-03-16T03:26:17;100144.34;;;9.69;100.00
37368;BME280;23240;43.210;27.910;2023-03-16T03:28:44;100149.66;;;9.59;100.00
37368;BME280;23240;43.210;27.910;2023-03-16T03:31:13;100153.03;;;9.61;100.00
37368;BME280;23240;43.210;27.910;2023-03-16T03:33:39;100158.13;;;9.64;100.00
37368;BME280;23240;43.210;27.910;2023-03-16T03:36:04;100162.22;;;9.68;100.00
37368;BME280;23240;43.210;27.910;2023-03-16T03:38:30;100164.38;;;9.74;100.00
37368;BME280;23240;43.210;27.910;2023-03-16T03:40:55;100165.53;;;9.82;100.00
37368;BME280;23240;43.210;27.910;2023-03-16T03:43:23;100170.94;;;9.70;100.00
37368;BME280;23240;43.210;27.910;2023-03-16T03:45:48;100167.25;;;9.62;100.00
37368;BME280;23240;43.210;27.910;2023-03-16T03:48:14;100167.66;;;9.57;100.00
37368;BME280;23240;43.210;27.910;2023-03-16T03:50:39;100180.25;;;9.45;100.00
37368;BME280;23240;43.210;27.910;2023-03-16T03:53:05;100179.66;;;9.42;100.00
37368;BME280;23240;43.210;27.910;2023-03-16T03:55:31;100181.88;;;9.37;100.00
37368;BME280;23240;43.210;27.910;2023-03-16T03:57:56;100187.75;;;9.31;100.00
37368;BME280;23240;43.210;27.910;2023-03-16T04:00:22;100194.63;;;9.23;100.00
37368;BME280;23240;43.210;27.910;2023-03-16T04:02:47;100194.63;;;9.23;100.00
37368;BME280;23240;43.210;27.910;2023-03-16T04:05:13;100196.94;;;9.17;100.00
37368;BME280;23240;43.210;27.910;2023-03-16T04:07:38;100201.06;;;9.21;100.00
37368;BME280;23240;43.210;27.910;2023-03-16T04:10:04;100201.91;;;9.21;100.00
37368;BME280;23240;43.210;27.910;2023-03-16T04:12:30;100201.75;;;9.23;100.00
37368;BME280;23240;43.210;27.910;2023-03-16T04:14:55;100206.16;;;9.24;100.00
37368;BME280;23240;43.210;27.910;2023-03-16T04:17:20;100213.31;;;9.23;100.00
37368;BME280;23240;43.210;27.910;2023-03-16T04:19:46;100206.72;;;9.27;100.00
37368;BME280;23240;43.210;27.910;2023-03-16T04:22:11;100218.66;;;9.23;100.00
37368;BME280;23240;43.210;27.910;2023-03-16T04:24:37;100218.06;;;9.20;100.00
37368;BME280;23240;43.210;27.910;2023-03-16T04:27:02;100223.03;;;9.24;100.00
37368;BME280;23240;43.210;27.910;2023-03-16T04:29:28;100224.25;;;9.20;100.00
37368;BME280;23240;43.210;27.910;2023-03-16T04:31:53;100230.19;;;9.24;100.00
37368;BME280;23240;43.210;27.910;2023-03-16T04:34:19;100230.78;;;9.27;100.00
37368;BME280;23240;43.210;27.910;2023-03-16T04:36:49;100239.91;;;9.25;100.00
37368;BME280;23240;43.210;27.910;2023-03-16T04:39:16;100241.00;;;9.22;100.00
37368;BME280;23240;43.210;27.910;2023-03-16T04:41:41;100242.72;;;9.23;100.00
37368;BME280;23240;43.210;27.910;2023-03-16T04:44:07;100238.72;;;9.18;100.00
37368;BME280;23240;43.210;27.910;2023-03-16T04:46:32;100247.50;;;9.09;100.00
37368;BME280;23240;43.210;27.910;2023-03-16T04:48:57;100252.47;;;9.13;100.00
37368;BME280;23240;43.210;27.910;2023-03-16T04:51:23;100251.50;;;9.14;100.00
37368;BME280;23240;43.210;27.910;2023-03-16T04:53:49;100255.03;;;9.15;100.00
37368;BME280;23240;43.210;27.910;2023-03-16T04:56:15;100252.59;;;9.12;100.00
37368;BME280;23240;43.210;27.910;2023-03-16T04:58:43;100257.63;;;9.05;100.00
37368;BME280;23240;43.210;27.910;2023-03-16T05:01:08;100265.72;;;9.04;100.00
37368;BME280;23240;43.210;27.910;2023-03-16T05:03:33;100268.78;;;8.99;100.00
37368;BME280;23240;43.210;27.910;2023-03-16T05:05:59;100268.81;;;8.88;100.00
37368;BME280;23240;43.210;27.910;2023-03-16T05:08:25;100275.28;;;8.85;100.00
37368;BME280;23240;43.210;27.910;2023-03-16T05:10:50;100278.81;;;8.86;100.00
37368;BME280;23240;43.210;27.910;2023-03-16T05:13:15;100277.34;;;8.82;100.00
37368;BME280;23240;43.210;27.910;2023-03-16T05:15:41;100273.84;;;8.70;100.00
37368;BME280;23240;43.210;27.910;2023-03-16T05:18:06;100275.91;;;8.78;100.00
37368;BME280;23240;43.210;27.910;2023-03-16T05:20:31;100282.69;;;8.82;100.00
37368;BME280;23240;43.210;27.910;2023-03-16T05:22:57;100294.34;;;8.81;100.00
37368;BME280;23240;43.210;27.910;2023-03-16T05:25:23;100299.19;;;8.87;100.00
37368;BME280;23240;43.210;27.910;2023-03-16T05:27:49;100296.66;;;8.85;100.00
37368;BME280;23240;43.210;27.910;2023-03-16T05:30:15;100301.88;;;8.75;100.00
37368;BME280;23240;43.210;27.910;2023-03-16T05:32:41;100306.41;;;8.53;100.00
37368;BME280;23240;43.210;27.910;2023-03-16T05:35:07;100305.06;;;8.47;100.00
37368;BME280;23240;43.210;27.910;2023-03-16T05:37:34;100296.47;;;8.43;100.00
37368;BME280;23240;43.210;27.910;2023-03-16T05:40:03;100303.34;;;8.46;100.00
37368;BME280;23240;43.210;27.910;2023-03-16T05:42:36;100304.81;;;8.50;100.00
37368;BME280;23240;43.210;27.910;2023-03-16T05:45:01;100307.97;;;8.44;100.00
37368;BME280;23240;43.210;27.910;2023-03-16T05:47:26;100308.69;;;8.46;100.00
37368;BME280;23240;43.210;27.910;2023-03-16T05:49:51;100311.25;;;8.47;100.00
37368;BME280;23240;43.210;27.910;2023-03-16T05:52:17;100319.28;;;8.47;100.00
37368;BME280;23240;43.210;27.910;2023-03-16T05:54:42;100325.22;;;8.51;100.00
37368;BME280;23240;43.210;27.910;2023-03-16T05:57:07;100322.28;;;8.54;100.00
37368;BME280;23240;43.210;27.910;2023-03-16T05:59:33;100323.88;;;8.45;100.00
37368;BME280;23240;43.210;27.910;2023-03-16T06:01:58;100324.22;;;8.41;100.00
37368;BME280;23240;43.210;27.910;2023-03-16T06:04:23;100321.56;;;8.41;100.00
37368;BME280;23240;43.210;27.910;2023-03-16T06:06:49;100321.31;;;8.44;100.00
37368;BME280;23240;43.210;27.910;2023-03-16T06:09:14;100335.38;;;8.46;100.00
37368;BME280;23240;43.210;27.910;2023-03-16T06:11:39;100333.22;;;8.51;100.00
37368;BME280;23240;43.210;27.910;2023-03-16T06:14:05;100332.97;;;8.54;100.00
37368;BME280;23240;43.210;27.910;2023-03-16T06:16:30;100334.06;;;8.52;100.00
37368;BME280;23240;43.210;27.910;2023-03-16T06:18:55;100335.41;;;8.57;100.00
37368;BME280;23240;43.210;27.910;2023-03-16T06:21:21;100334.44;;;8.58;100.00
37368;BME280;23240;43.210;27.910;2023-03-16T06:23:47;100339.63;;;8.60;100.00
37368;BME280;23240;43.210;27.910;2023-03-16T06:26:12;100348.25;;;8.63;100.00
37368;BME280;23240;43.210;27.910;2023-03-16T06:28:38;100345.81;;;8.60;100.00
37368;BME280;23240;43.210;27.910;2023-03-16T06:31:03;100350.69;;;8.66;100.00
37368;BME280;23240;43.210;27.910;2023-03-16T06:33:28;100353.09;;;8.69;100.00
37368;BME280;23240;43.210;27.910;2023-03-16T06:35:54;100351.63;;;8.65;100.00
37368;BME280;23240;43.210;27.910;2023-03-16T06:38:19;100355.28;;;8.64;100.00
37368;BME280;23240;43.210;27.910;2023-03-16T06:40:44;100356.97;;;8.65;100.00
37368;BME280;23240;43.210;27.910;2023-03-16T06:43:10;100362.31;;;8.65;100.00
37368;BME280;23240;43.210;27.910;2023-03-16T06:45:36;100359.91;;;8.73;100.00
37368;BME280;23240;43.210;27.910;2023-03-16T06:48:01;100361.09;;;8.69;100.00
37368;BME280;23240;43.210;27.910;2023-03-16T06:50:26;100364.88;;;8.67;100.00
37368;BME280;23240;43.210;27.910;2023-03-16T06:52:52;100373.88;;;8.66;100.00
37368;BME280;23240;43.210;27.910;2023-03-16T06:55:17;100381.53;;;8.70;100.00
37368;BME280;23240;43.210;27.910;2023-03-16T06:57:43;100389.63;;;8.69;100.00
37368;BME280;23240;43.210;27.910;2023-03-16T07:00:08;100382.13;;;8.63;100.00
37368;BME280;23240;43.210;27.910;2023-03-16T07:02:34;100388.03;;;8.55;100.00
37368;BME280;23240;43.210;27.910;2023-03-16T07:05:00;100391.69;;;8.54;100.00
37368;BME280;23240;43.210;27.910;2023-03-16T07:07:25;100400.69;;;8.53;100.00
37368;BME280;23240;43.210;27.910;2023-03-16T07:09:51;100399.72;;;8.43;100.00
37368;BME280;23240;43.210;27.910;2023-03-16T07:12:16;100409.28;;;8.45;100.00
37368;BME280;23240;43.210;27.910;2023-03-16T07:14:42;100409.25;;;8.34;100.00
37368;BME280;23240;43.210;27.910;2023-03-16T07:17:07;100418.09;;;8.35;100.00
37368;BME280;23240;43.210;27.910;2023-03-16T07:19:33;100427.91;;;8.34;100.00
37368;BME280;23240;43.210;27.910;2023-03-16T07:21:58;100425.47;;;8.31;100.00
37368;BME280;23240;43.210;27.910;2023-03-16T07:24:23;100429.78;;;8.45;100.00
37368;BME280;23240;43.210;27.910;2023-03-16T07:26:49;100429.06;;;8.54;100.00
37368;BME280;23240;43.210;27.910;2023-03-16T07:29:14;100424.59;;;8.66;100.00
37368;BME280;23240;43.210;27.910;2023-03-16T07:31:41;100426.53;;;8.75;100.00
37368;BME280;23240;43.210;27.910;2023-03-16T07:34:06;100432.75;;;8.75;100.00
37368;BME280;23240;43.210;27.910;2023-03-16T07:36:32;100434.31;;;8.78;100.00
37368;BME280;23240;43.210;27.910;2023-03-16T07:38:57;100439.78;;;8.77;100.00
37368;BME280;23240;43.210;27.910;2023-03-16T07:41:22;100439.50;;;8.80;100.00
37368;BME280;23240;43.210;27.910;2023-03-16T07:43:49;100443.88;;;8.69;100.00
37368;BME280;23240;43.210;27.910;2023-03-16T07:46:14;100446.06;;;8.64;100.00
37368;BME280;23240;43.210;27.910;2023-03-16T07:48:40;100446.81;;;8.66;100.00
37368;BME280;23240;43.210;27.910;2023-03-16T07:51:07;100452.28;;;8.76;100.00
37368;BME280;23240;43.210;27.910;2023-03-16T07:53:32;100445.84;;;8.79;100.00
37368;BME280;23240;43.210;27.910;2023-03-16T07:55:57;100457.38;;;8.90;100.00
37368;BME280;23240;43.210;27.910;2023-03-16T07:58:23;100455.53;;;9.02;100.00
37368;BME280;23240;43.210;27.910;2023-03-16T08:00:48;100456.66;;;8.99;100.00
37368;BME280;23240;43.210;27.910;2023-03-16T08:03:13;100452.63;;;8.94;100.00
37368;BME280;23240;43.210;27.910;2023-03-16T08:05:39;100446.69;;;8.90;100.00
37368;BME280;23240;43.210;27.910;2023-03-16T08:08:04;100449.25;;;8.81;100.00
37368;BME280;23240;43.210;27.910;2023-03-16T08:10:30;100464.28;;;8.82;100.00
37368;BME280;23240;43.210;27.910;2023-03-16T08:12:55;100455.78;;;8.77;100.00
37368;BME280;23240;43.210;27.910;2023-03-16T08:15:21;100453.09;;;8.65;100.00
37368;BME280;23240;43.210;27.910;2023-03-16T08:17:46;100474.47;;;8.65;100.00
37368;BME280;23240;43.210;27.910;2023-03-16T08:20:12;100465.97;;;8.60;100.00
37368;BME280;23240;43.210;27.910;2023-03-16T08:22:39;100465.38;;;8.57;100.00
37368;BME280;23240;43.210;27.910;2023-03-16T08:25:05;100479.56;;;8.57;100.00
37368;BME280;23240;43.210;27.910;2023-03-16T08:27:31;100483.94;;;8.58;100.00
37368;BME280;23240;43.210;27.910;2023-03-16T08:29:56;100478.09;;;8.42;100.00
37368;BME280;23240;43.210;27.910;2023-03-16T08:32:21;100471.47;;;8.35;100.00
37368;BME280;23240;43.210;27.910;2023-03-16T08:34:47;100493.78;;;8.34;100.00
37368;BME280;23240;43.210;27.910;2023-03-16T08:37:13;100491.34;;;8.31;100.00
37368;BME280;23240;43.210;27.910;2023-03-16T08:39:39;100499.47;;;8.29;100.00
37368;BME280;23240;43.210;27.910;2023-03-16T08:42:06;100494.63;;;8.23;100.00
37368;BME280;23240;43.210;27.910;2023-03-16T08:44:32;100482.41;;;8.32;100.00
37368;BME280;23240;43.210;27.910;2023-03-16T08:46:57;100483.25;;;8.32;100.00
37368;BME280;23240;43.210;27.910;2023-03-16T08:49:24;100490.81;;;8.38;100.00
37368;BME280;23240;43.210;27.910;2023-03-16T08:51:49;100490.69;;;8.40;100.00
37368;BME280;23240;43.210;27.910;2023-03-16T08:54:14;100486.69;;;8.45;100.00
37368;BME280;23240;43.210;27.910;2023-03-16T08:56:41;100496.41;;;8.46;100.00
37368;BME280;23240;43.210;27.910;2023-03-16T08:59:07;100494.13;;;8.53;100.00
37368;BME280;23240;43.210;27.910;2023-03-16T09:01:33;100500.16;;;8.55;100.00
37368;BME280;23240;43.210;27.910;2023-03-16T09:03:58;100489.00;;;8.50;100.00
37368;BME280;23240;43.210;27.910;2023-03-16T09:06:25;100502.69;;;8.45;100.00
37368;BME280;23240;43.210;27.910;2023-03-16T09:08:50;100502.34;;;8.50;100.00
37368;BME280;23240;43.210;27.910;2023-03-16T09:11:17;100504.06;;;8.51;100.00
37368;BME280;23240;43.210;27.910;2023-03-16T09:13:43;100508.31;;;8.65;100.00
37368;BME280;23240;43.210;27.910;2023-03-16T09:16:09;100503.25;;;8.73;100.00
37368;BME280;23240;43.210;27.910;2023-03-16T09:18:36;100507.50;;;8.75;100.00
37368;BME280;23240;43.210;27.910;2023-03-16T09:21:02;100509.22;;;8.77;100.00
37368;BME280;23240;43.210;27.910;2023-03-16T09:23:28;100510.28;;;8.74;100.00
37368;BME280;23240;43.210;27.910;2023-03-16T09:25:57;100509.09;;;8.89;100.00
37368;BME280;23240;43.210;27.910;2023-03-16T09:28:24;100531.78;;;8.84;100.00
37368;BME280;23240;43.210;27.910;2023-03-16T09:30:51;100523.06;;;8.82;100.00
37368;BME280;23240;43.210;27.910;2023-03-16T09:33:16;100527.16;;;8.74;100.00
37368;BME280;23240;43.210;27.910;2023-03-16T09:35:42;100530.94;;;8.72;100.00
37368;BME280;23240;43.210;27.910;2023-03-16T09:38:09;100531.66;;;8.74;100.00
37368;BME280;23240;43.210;27.910;2023-03-16T09:40:34;100541.13;;;8.67;100.00
37368;BME280;23240;43.210;27.910;2023-03-16T09:43:09;100553.13;;;8.61;100.00
37368;BME280;23240;43.210;27.910;2023-03-16T09:45:53;100548.84;;;8.59;100.00
37368;BME280;23240;43.210;27.910;2023-03-16T09:48:24;100556.34;;;8.54;100.00
37368;BME280;23240;43.210;27.910;2023-03-16T09:50:50;100558.66;;;8.47;100.00
37368;BME280;23240;43.210;27.910;2023-03-16T09:53:22;100562.66;;;8.41;100.00
37368;BME280;23240;43.210;27.910;2023-03-16T09:56:25;100558.88;;;8.44;100.00
37368;BME280;23240;43.210;27.910;2023-03-16T09:58:41;100567.09;;;8.41;100.00
37368;BME280;23240;43.210;27.910;2023-03-16T10:06:37;100577.84;;;8.52;100.00
37368;BME280;23240;43.210;27.910;2023-03-16T10:11:37;100577.91;;;8.74;100.00
37368;BME280;23240;43.210;27.910;2023-03-16T10:19:36;100579.38;;;8.79;100.00
37368;BME280;23240;43.210;27.910;2023-03-16T10:22:08;100578.75;;;8.75;100.00
37368;BME280;23240;43.210;27.910;2023-03-16T10:27:23;100589.25;;;8.54;100.00
37368;BME280;23240;43.210;27.910;2023-03-16T10:29:51;100577.84;;;8.52;100.00
37368;BME280;23240;43.210;27.910;2023-03-16T10:32:17;100583.13;;;8.41;100.00
37368;BME280;23240;43.210;27.910;2023-03-16T10:34:44;100586.88;;;8.38;100.00
37368;BME280;23240;43.210;27.910;2023-03-16T10:37:12;100585.50;;;8.33;100.00
37368;BME280;23240;43.210;27.910;2023-03-16T10:39:38;100579.91;;;8.36;100.00
37368;BME280;23240;43.210;27.910;2023-03-16T10:42:11;100572.44;;;8.41;100.00
37368;BME280;23240;43.210;27.910;2023-03-16T10:44:38;100587.19;;;8.34;100.00
37368;BME280;23240;43.210;27.910;2023-03-16T10:47:04;100591.03;;;8.42;100.00
37368;BME280;23240;43.210;27.910;2023-03-16T10:49:40;100577.56;;;8.44;100.00
37368;BME280;23240;43.210;27.910;2023-03-16T10:54:48;100576.50;;;8.46;100.00
37368;BME280;23240;43.210;27.910;2023-03-16T10:59:46;100585.88;;;8.63;100.00
37368;BME280;23240;43.210;27.910;2023-03-16T11:02:15;100581.03;;;8.68;100.00
37368;BME280;23240;43.210;27.910;2023-03-16T11:04:41;100588.34;;;8.78;100.00
37368;BME280;23240;43.210;27.910;2023-03-16T11:07:07;100592.50;;;8.82;100.00
37368;BME280;23240;43.210;27.910;2023-03-16T11:09:39;100579.78;;;8.96;100.00
37368;BME280;23240;43.210;27.910;2023-03-16T11:12:11;100582.72;;;9.05;100.00
37368;BME280;23240;43.210;27.910;2023-03-16T11:14:41;100573.59;;;9.07;100.00
37368;BME280;23240;43.210;27.910;2023-03-16T11:17:14;100580.75;;;9.18;100.00
37368;BME280;23240;43.210;27.910;2023-03-16T11:19:55;100579.94;;;9.29;100.00
37368;BME280;23240;43.210;27.910;2023-03-16T11:22:24;100582.84;;;9.37;100.00
37368;BME280;23240;43.210;27.910;2023-03-16T11:24:56;100573.84;;;9.38;100.00
37368;BME280;23240;43.210;27.910;2023-03-16T11:27:28;100567.75;;;9.47;100.00
37368;BME280;23240;43.210;27.910;2023-03-16T11:32:35;100573.38;;;9.44;100.00
37368;BME280;23240;43.210;27.910;2023-03-16T11:35:01;100578.22;;;9.50;100.00
37368;BME280;23240;43.210;27.910;2023-03-16T11:42:45;100591.34;;;9.42;100.00
37368;BME280;23240;43.210;27.910;2023-03-16T11:48:14;100582.13;;;9.46;100.00
37368;BME280;23240;43.210;27.910;2023-03-16T11:55:58;100591.34;;;9.19;100.00
37368;BME280;23240;43.210;27.910;2023-03-16T12:03:58;100604.84;;;9.51;100.00
37368;BME280;23240;43.210;27.910;2023-03-16T12:11:54;100606.94;;;9.48;100.00
37368;BME280;23240;43.210;27.910;2023-03-16T12:17:30;100607.28;;;9.55;100.00
37368;BME280;23240;43.210;27.910;2023-03-16T12:22:11;100616.41;;;9.63;100.00
37368;BME280;23240;43.210;27.910;2023-03-16T12:24:41;100629.28;;;9.58;100.00
37368;BME280;23240;43.210;27.910;2023-03-16T12:27:11;100619.81;;;9.54;100.00
37368;BME280;23240;43.210;27.910;2023-03-16T12:29:40;100625.50;;;9.49;100.00
37368;BME280;23240;43.210;27.910;2023-03-16T12:32:18;100623.69;;;9.50;100.00
37368;BME280;23240;43.210;27.910;2023-03-16T12:34:53;100626.72;;;9.45;100.00
37368;BME280;23240;43.210;27.910;2023-03-16T12:37:35;100632.91;;;9.46;100.00
37368;BME280;23240;43.210;27.910;2023-03-16T12:50:13;100634.91;;;9.09;100.00
37368;BME280;23240;43.210;27.910;2023-03-16T12:52:46;100636.38;;;9.13;100.00
37368;BME280;23240;43.210;27.910;2023-03-16T12:57:40;100642.13;;;9.19;100.00
37368;BME280;23240;43.210;27.910;2023-03-16T13:00:06;100642.63;;;9.24;100.00
37368;BME280;23240;43.210;27.910;2023-03-16T13:02:35;100642.63;;;9.36;100.00
37368;BME280;23240;43.210;27.910;2023-03-16T13:05:02;100648.59;;;9.50;100.00
37368;BME280;23240;43.210;27.910;2023-03-16T13:07:32;100650.91;;;9.55;100.00
37368;BME280;23240;43.210;27.910;2023-03-16T13:12:24;100664.03;;;9.69;100.00
37368;BME280;23240;43.210;27.910;2023-03-16T13:14:50;100660.66;;;9.67;100.00
37368;BME280;23240;43.210;27.910;2023-03-16T13:19:45;100665.75;;;9.70;100.00
37368;BME280;23240;43.210;27.910;2023-03-16T13:24:50;100666.00;;;9.67;100.00
37368;BME280;23240;43.210;27.910;2023-03-16T13:27:27;100663.06;;;9.70;100.00
37368;BME280;23240;43.210;27.910;2023-03-16T13:29:54;100681.56;;;9.73;100.00
37368;BME280;23240;43.210;27.910;2023-03-16T13:32:20;100676.06;;;9.75;100.00
37368;BME280;23240;43.210;27.910;2023-03-16T13:34:47;100679.25;;;9.69;100.00
37368;BME280;23240;43.210;27.910;2023-03-16T13:37:14;100680.09;;;9.69;100.00
37368;BME280;23240;43.210;27.910;2023-03-16T13:39:41;100688.59;;;9.74;100.00
37368;BME280;23240;43.210;27.910;2023-03-16T13:42:39;100691.50;;;9.60;100.00
37368;BME280;23240;43.210;27.910;2023-03-16T13:45:04;100695.38;;;9.45;100.00
37368;BME280;23240;43.210;27.910;2023-03-16T13:47:32;100695.16;;;9.48;100.00
37368;BME280;23240;43.210;27.910;2023-03-16T13:49:58;100699.25;;;9.52;100.00
37368;BME280;23240;43.210;27.910;2023-03-16T13:52:32;100697.44;;;9.41;100.00
37368;BME280;23240;43.210;27.910;2023-03-16T13:54:59;100697.56;;;9.40;100.00
37368;BME280;23240;43.210;27.910;2023-03-16T13:57:29;100702.41;;;9.35;100.00
37368;BME280;23240;43.210;27.910;2023-03-16T14:00:17;100709.19;;;9.27;100.00